sensor_id;sensor_type;location;lat;lon;timestamp;P1;durP1;ratioP1;P2;durP2;ratioP2
41943;SDS011;27636;52.610;13.244;2023-04-24T00:04:10;6.88;;;3.63;;
41943;SDS011;27636;52.610;13.244;2023-04-24T00:09:17;8.35;;;4.07;;
41943;SDS011;27636;52.610;13.244;2023-04-24T00:14:22;11.93;;;3.75;;
41943;SDS011;27636;52.610;13.244;2023-04-24T00:19:25;8.23;;;3.88;;
41943;SDS011;27636;52.610;13.244;2023-04-24T00:24:28;9.07;;;4.00;;
41943;SDS011;27636;52.610;13.244;2023-04-24T00:29:33;8.00;;;3.40;;
41943;SDS011;27636;52.610;13.244;2023-04-24T00:34:37;9.15;;;4.43;;
41943;SDS011;27636;52.610;13.244;2023-04-24T00:39:40;13.02;;;5.05;;
41943;SDS011;27636;52.610;13.244;2023-04-24T00:44:46;16.02;;;4.60;;
41943;SDS011;27636;52.610;13.244;2023-04-24T00:49:50;8.07;;;4.57;;
41943;SDS011;27636;52.610;13.244;2023-04-24T00:54:54;12.15;;;4.68;;
41943;SDS011;27636;52.610;13.244;2023-04-24T00:59:59;8.85;;;4.25;;
41943;SDS011;27636;52.610;13.244;2023-04-24T01:05:04;9.77;;;4.75;;
41943;SDS011;27636;52.610;13.244;2023-04-24T01:10:08;9.48;;;5.07;;
41943;SDS011;27636;52.610;13.244;2023-04-24T01:15:13;10.50;;;4.90;;
41943;SDS011;27636;52.610;13.244;2023-04-24T01:20:17;9.80;;;4.65;;
41943;SDS011;27636;52.610;13.244;2023-04-24T01:25:23;9.60;;;4.30;;
41943;SDS011;27636;52.610;13.244;2023-04-24T01:30:29;8.70;;;3.85;;
41943;SDS011;27636;52.610;13.244;2023-04-24T01:35:33;9.10;;;4.45;;
41943;SDS011;27636;52.610;13.244;2023-04-24T01:40:38;10.05;;;4.40;;
41943;SDS011;27636;52.610;13.244;2023-04-24T01:45:42;12.23;;;5.20;;
41943;SDS011;27636;52.610;13.244;2023-04-24T01:50:46;11.25;;;5.35;;
41943;SDS011;27636;52.610;13.244;2023-04-24T01:55:50;8.90;;;4.57;;
41943;SDS011;27636;52.610;13.244;2023-04-24T02:00:55;10.35;;;5.15;;
41943;SDS011;27636;52.610;13.244;2023-04-24T02:06:03;9.32;;;5.28;;
41943;SDS011;27636;52.610;13.244;2023-04-24T02:11:09;9.90;;;4.45;;
41943;SDS011;27636;52.610;13.244;2023-04-24T02:16:12;11.52;;;4.80;;
41943;SDS011;27636;52.610;13.244;2023-04-24T02:21:16;12.32;;;4.85;;
41943;SDS011;27636;52.610;13.244;2023-04-24T02:26:20;11.07;;;5.10;;
41943;SDS011;27636;52.610;13.244;2023-04-24T02:31:27;10.73;;;5.20;;
41943;SDS011;27636;52.610;13.244;2023-04-24T02:36:31;12.45;;;6.00;;
41943;SDS011;27636;52.610;13.244;2023-04-24T02:41:36;11.57;;;5.75;;
41943;SDS011;27636;52.610;13.244;2023-04-24T02:46:39;12.98;;;5.65;;
41943;SDS011;27636;52.610;13.244;2023-04-24T02:51:44;13.10;;;6.03;;
41943;SDS011;27636;52.610;13.244;2023-04-24T02:56:49;13.10;;;5.35;;
41943;SDS011;27636;52.610;13.244;2023-04-24T03:01:53;11.38;;;5.45;;
41943;SDS011;27636;52.610;13.244;2023-04-24T03:06:57;14.23;;;6.15;;
41943;SDS011;27636;52.610;13.244;2023-04-24T03:12:01;14.50;;;6.13;;
41943;SDS011;27636;52.610;13.244;2023-04-24T03:17:06;12.13;;;5.75;;
41943;SDS011;27636;52.610;13.244;2023-04-24T03:22:09;11.50;;;5.22;;
41943;SDS011;27636;52.610;13.244;2023-04-24T03:27:16;12.65;;;6.57;;
41943;SDS011;27636;52.610;13.244;2023-04-24T03:32:31;12.95;;;6.15;;
41943;SDS011;27636;52.610;13.244;2023-04-24T03:37:36;15.18;;;7.57;;
41943;SDS011;27636;52.610;13.244;2023-04-24T03:43:02;10.50;;;5.63;;
41943;SDS011;27636;52.610;13.244;2023-04-24T03:48:06;13.82;;;6.07;;
41943;SDS011;27636;52.610;13.244;2023-04-24T03:53:10;12.40;;;6.00;;
41943;SDS011;27636;52.610;13.244;2023-04-24T03:58:17;12.43;;;6.18;;
41943;SDS011;27636;52.610;13.244;2023-04-24T04:03:21;13.25;;;7.03;;
41943;SDS011;27636;52.610;13.244;2023-04-24T04:08:25;12.52;;;6.32;;
41943;SDS011;27636;52.610;13.244;2023-04-24T04:13:31;15.05;;;6.50;;
41943;SDS011;27636;52.610;13.244;2023-04-24T04:18:34;13.50;;;6.00;;
41943;SDS011;27636;52.610;13.244;2023-04-24T04:23:39;13.40;;;6.13;;
41943;SDS011;27636;52.610;13.244;2023-04-24T04:28:50;12.18;;;5.95;;
41943;SDS011;27636;52.610;13.244;2023-04-24T04:33:55;18.00;;;6.90;;
41943;SDS011;27636;52.610;13.244;2023-04-24T04:38:59;11.32;;;6.00;;
41943;SDS011;27636;52.610;13.244;2023-04-24T04:44:20;13.45;;;5.82;;
41943;SDS011;27636;52.610;13.244;2023-04-24T04:49:24;12.88;;;6.05;;
41943;SDS011;27636;52.610;13.244;2023-04-24T04:54:28;13.48;;;5.60;;
41943;SDS011;27636;52.610;13.244;2023-04-24T04:59:34;14.37;;;6.53;;
41943;SDS011;27636;52.610;13.244;2023-04-24T05:04:42;13.20;;;5.28;;
41943;SDS011;27636;52.610;13.244;2023-04-24T05:09:47;11.75;;;5.20;;
41943;SDS011;27636;52.610;13.244;2023-04-24T05:14:52;13.95;;;5.85;;
41943;SDS011;27636;52.610;13.244;2023-04-24T05:19:57;13.95;;;5.53;;
41943;SDS011;27636;52.610;13.244;2023-04-24T05:25:01;14.33;;;5.07;;
41943;SDS011;27636;52.610;13.244;2023-04-24T05:30:21;15.40;;;5.93;;
41943;SDS011;27636;52.610;13.244;2023-04-24T05:35:25;14.05;;;5.15;;
41943;SDS011;27636;52.610;13.244;2023-04-24T05:40:29;13.63;;;5.18;;
41943;SDS011;27636;52.610;13.244;2023-04-24T05:45:34;8.82;;;4.57;;
41943;SDS011;27636;52.610;13.244;2023-04-24T05:50:39;7.10;;;3.47;;
41943;SDS011;27636;52.610;13.244;2023-04-24T05:55:42;8.40;;;3.35;;
41943;SDS011;27636;52.610;13.244;2023-04-24T06:00:48;5.88;;;2.63;;
41943;SDS011;27636;52.610;13.244;2023-04-24T06:05:53;4.90;;;2.47;;
41943;SDS011;27636;52.610;13.244;2023-04-24T06:10:58;6.88;;;2.38;;
41943;SDS011;27636;52.610;13.244;2023-04-24T06:16:06;5.47;;;2.05;;
41943;SDS011;27636;52.610;13.244;2023-04-24T06:21:15;4.00;;;1.77;;
41943;SDS011;27636;52.610;13.244;2023-04-24T06:26:20;4.90;;;1.70;;
41943;SDS011;27636;52.610;13.244;2023-04-24T06:31:26;3.60;;;1.45;;
41943;SDS011;27636;52.610;13.244;2023-04-24T06:41:34;4.37;;;1.27;;
41943;SDS011;27636;52.610;13.244;2023-04-24T06:46:39;2.42;;;1.15;;
41943;SDS011;27636;52.610;13.244;2023-04-24T06:51:43;2.05;;;1.15;;
41943;SDS011;27636;52.610;13.244;2023-04-24T06:56:48;2.83;;;1.73;;
41943;SDS011;27636;52.610;13.244;2023-04-24T07:06:57;3.63;;;1.00;;
41943;SDS011;27636;52.610;13.244;2023-04-24T07:18:23;1.00;;;0.80;;
41943;SDS011;27636;52.610;13.244;2023-04-24T07:23:27;3.72;;;0.90;;
41943;SDS011;27636;52.610;13.244;2023-04-24T07:28:31;1.60;;;0.98;;
41943;SDS011;27636;52.610;13.244;2023-04-24T07:33:36;1.23;;;0.73;;
41943;SDS011;27636;52.610;13.244;2023-04-24T07:38:40;2.08;;;0.70;;
41943;SDS011;27636;52.610;13.244;2023-04-24T07:43:45;2.22;;;0.82;;
41943;SDS011;27636;52.610;13.244;2023-04-24T07:48:50;3.20;;;0.90;;
41943;SDS011;27636;52.610;13.244;2023-04-24T07:54:13;2.58;;;0.80;;
41943;SDS011;27636;52.610;13.244;2023-04-24T07:59:18;3.78;;;0.80;;
41943;SDS011;27636;52.610;13.244;2023-04-24T08:04:22;2.60;;;0.73;;
41943;SDS011;27636;52.610;13.244;2023-04-24T08:09:26;1.98;;;0.75;;
41943;SDS011;27636;52.610;13.244;2023-04-24T08:14:30;1.40;;;0.65;;
41943;SDS011;27636;52.610;13.244;2023-04-24T08:25:41;2.10;;;1.00;;
41943;SDS011;27636;52.610;13.244;2023-04-24T08:35:48;3.75;;;0.95;;
41943;SDS011;27636;52.610;13.244;2023-04-24T08:41:26;0.75;;;0.52;;
41943;SDS011;27636;52.610;13.244;2023-04-24T08:46:30;1.02;;;0.60;;
41943;SDS011;27636;52.610;13.244;2023-04-24T08:51:35;1.38;;;0.60;;
41943;SDS011;27636;52.610;13.244;2023-04-24T08:56:42;2.17;;;0.73;;
41943;SDS011;27636;52.610;13.244;2023-04-24T09:01:48;1.17;;;0.70;;
41943;SDS011;27636;52.610;13.244;2023-04-24T09:11:59;1.25;;;1.15;;
41943;SDS011;27636;52.610;13.244;2023-04-24T09:17:04;4.13;;;0.80;;
41943;SDS011;27636;52.610;13.244;2023-04-24T09:23:20;2.47;;;0.70;;
41943;SDS011;27636;52.610;13.244;2023-04-24T09:28:29;1.80;;;0.82;;
41943;SDS011;27636;52.610;13.244;2023-04-24T09:33:33;2.58;;;0.80;;
41943;SDS011;27636;52.610;13.244;2023-04-24T09:38:38;0.82;;;0.60;;
41943;SDS011;27636;52.610;13.244;2023-04-24T09:43:43;2.37;;;0.90;;
41943;SDS011;27636;52.610;13.244;2023-04-24T09:48:48;2.17;;;0.77;;
41943;SDS011;27636;52.610;13.244;2023-04-24T09:53:52;2.67;;;0.90;;
41943;SDS011;27636;52.610;13.244;2023-04-24T09:59:07;3.22;;;1.40;;
41943;SDS011;27636;52.610;13.244;2023-04-24T10:04:15;1.42;;;0.90;;
41943;SDS011;27636;52.610;13.244;2023-04-24T10:09:22;2.40;;;0.90;;
41943;SDS011;27636;52.610;13.244;2023-04-24T10:14:29;6.00;;;1.02;;
41943;SDS011;27636;52.610;13.244;2023-04-24T10:19:34;5.15;;;1.02;;
41943;SDS011;27636;52.610;13.244;2023-04-24T10:24:40;2.35;;;1.10;;
41943;SDS011;27636;52.610;13.244;2023-04-24T10:29:48;1.48;;;0.73;;
41943;SDS011;27636;52.610;13.244;2023-04-24T10:34:56;2.05;;;0.82;;
41943;SDS011;27636;52.610;13.244;2023-04-24T10:40:00;3.67;;;1.05;;
41943;SDS011;27636;52.610;13.244;2023-04-24T10:45:17;1.27;;;0.80;;
41943;SDS011;27636;52.610;13.244;2023-04-24T10:50:22;2.73;;;1.00;;
41943;SDS011;27636;52.610;13.244;2023-04-24T10:55:45;1.17;;;0.80;;
41943;SDS011;27636;52.610;13.244;2023-04-24T11:00:58;2.22;;;0.90;;
41943;SDS011;27636;52.610;13.244;2023-04-24T11:06:03;1.38;;;0.60;;
41943;SDS011;27636;52.610;13.244;2023-04-24T11:11:09;1.63;;;0.95;;
41943;SDS011;27636;52.610;13.244;2023-04-24T11:16:16;2.08;;;1.00;;
41943;SDS011;27636;52.610;13.244;2023-04-24T11:21:24;1.67;;;1.25;;
41943;SDS011;27636;52.610;13.244;2023-04-24T11:26:29;1.58;;;0.68;;
41943;SDS011;27636;52.610;13.244;2023-04-24T11:31:37;0.50;;;0.50;;
41943;SDS011;27636;52.610;13.244;2023-04-24T11:36:42;2.28;;;0.50;;
41943;SDS011;27636;52.610;13.244;2023-04-24T11:41:46;2.40;;;0.80;;
41943;SDS011;27636;52.610;13.244;2023-04-24T11:46:52;1.15;;;0.77;;
41943;SDS011;27636;52.610;13.244;2023-04-24T11:51:59;1.92;;;0.80;;
41943;SDS011;27636;52.610;13.244;2023-04-24T11:57:04;1.52;;;0.65;;
41943;SDS011;27636;52.610;13.244;2023-04-24T12:02:10;2.38;;;0.80;;
41943;SDS011;27636;52.610;13.244;2023-04-24T12:07:23;2.20;;;0.93;;
41943;SDS011;27636;52.610;13.244;2023-04-24T12:12:28;2.70;;;1.02;;
41943;SDS011;27636;52.610;13.244;2023-04-24T12:17:33;2.58;;;1.00;;
41943;SDS011;27636;52.610;13.244;2023-04-24T12:22:44;2.10;;;0.82;;
41943;SDS011;27636;52.610;13.244;2023-04-24T12:27:52;2.17;;;0.88;;
41943;SDS011;27636;52.610;13.244;2023-04-24T12:32:58;3.45;;;0.60;;
41943;SDS011;27636;52.610;13.244;2023-04-24T12:38:05;2.03;;;0.60;;
41943;SDS011;27636;52.610;13.244;2023-04-24T12:43:13;1.40;;;0.60;;
41943;SDS011;27636;52.610;13.244;2023-04-24T12:48:19;2.10;;;0.70;;
41943;SDS011;27636;52.610;13.244;2023-04-24T12:53:24;3.17;;;0.80;;
41943;SDS011;27636;52.610;13.244;2023-04-24T12:58:29;1.65;;;0.77;;
41943;SDS011;27636;52.610;13.244;2023-04-24T13:03:34;1.30;;;0.70;;
41943;SDS011;27636;52.610;13.244;2023-04-24T13:08:38;2.80;;;0.80;;
41943;SDS011;27636;52.610;13.244;2023-04-24T13:13:42;3.60;;;1.02;;
41943;SDS011;27636;52.610;13.244;2023-04-24T13:18:48;1.33;;;0.80;;
41943;SDS011;27636;52.610;13.244;2023-04-24T13:23:51;1.98;;;1.00;;
41943;SDS011;27636;52.610;13.244;2023-04-24T13:28:55;2.38;;;1.20;;
41943;SDS011;27636;52.610;13.244;2023-04-24T13:34:02;2.07;;;1.00;;
41943;SDS011;27636;52.610;13.244;2023-04-24T13:39:08;2.35;;;0.82;;
41943;SDS011;27636;52.610;13.244;2023-04-24T13:44:11;2.50;;;1.20;;
41943;SDS011;27636;52.610;13.244;2023-04-24T13:49:16;2.55;;;0.80;;
41943;SDS011;27636;52.610;13.244;2023-04-24T13:59:24;2.15;;;1.00;;
41943;SDS011;27636;52.610;13.244;2023-04-24T14:04:30;2.80;;;1.13;;
41943;SDS011;27636;52.610;13.244;2023-04-24T14:09:34;3.00;;;0.90;;
41943;SDS011;27636;52.610;13.244;2023-04-24T14:14:37;2.15;;;0.75;;
41943;SDS011;27636;52.610;13.244;2023-04-24T14:19:43;3.00;;;1.50;;
41943;SDS011;27636;52.610;13.244;2023-04-24T14:29:55;3.13;;;1.00;;
41943;SDS011;27636;52.610;13.244;2023-04-24T14:35:00;1.83;;;0.90;;
41943;SDS011;27636;52.610;13.244;2023-04-24T14:45:13;1.80;;;0.82;;
41943;SDS011;27636;52.610;13.244;2023-04-24T14:50:19;2.10;;;0.90;;
41943;SDS011;27636;52.610;13.244;2023-04-24T14:55:26;2.30;;;0.90;;
41943;SDS011;27636;52.610;13.244;2023-04-24T15:00:29;2.10;;;0.93;;
41943;SDS011;27636;52.610;13.244;2023-04-24T15:05:34;3.13;;;1.00;;
41943;SDS011;27636;52.610;13.244;2023-04-24T15:10:38;1.92;;;1.05;;
41943;SDS011;27636;52.610;13.244;2023-04-24T15:15:43;2.33;;;1.10;;
41943;SDS011;27636;52.610;13.244;2023-04-24T15:20:48;2.33;;;1.10;;
41943;SDS011;27636;52.610;13.244;2023-04-24T15:25:51;2.10;;;1.10;;
41943;SDS011;27636;52.610;13.244;2023-04-24T15:30:55;2.80;;;1.10;;
41943;SDS011;27636;52.610;13.244;2023-04-24T15:36:00;4.18;;;1.00;;
41943;SDS011;27636;52.610;13.244;2023-04-24T15:41:05;2.85;;;1.10;;
41943;SDS011;27636;52.610;13.244;2023-04-24T15:46:09;1.60;;;0.85;;
41943;SDS011;27636;52.610;13.244;2023-04-24T15:51:14;2.95;;;1.20;;
41943;SDS011;27636;52.610;13.244;2023-04-24T15:56:18;1.35;;;0.80;;
41943;SDS011;27636;52.610;13.244;2023-04-24T16:01:22;3.30;;;1.03;;
41943;SDS011;27636;52.610;13.244;2023-04-24T16:06:28;1.70;;;0.80;;
41943;SDS011;27636;52.610;13.244;2023-04-24T16:11:32;3.85;;;1.00;;
41943;SDS011;27636;52.610;13.244;2023-04-24T16:16:38;3.30;;;1.02;;
41943;SDS011;27636;52.610;13.244;2023-04-24T16:21:43;5.05;;;1.02;;
41943;SDS011;27636;52.610;13.244;2023-04-24T16:26:47;2.55;;;1.20;;
41943;SDS011;27636;52.610;13.244;2023-04-24T16:31:51;1.53;;;1.00;;
41943;SDS011;27636;52.610;13.244;2023-04-24T16:36:55;2.35;;;1.00;;
41943;SDS011;27636;52.610;13.244;2023-04-24T16:41:59;5.20;;;0.98;;
41943;SDS011;27636;52.610;13.244;2023-04-24T16:47:03;4.07;;;1.30;;
41943;SDS011;27636;52.610;13.244;2023-04-24T16:52:09;2.67;;;1.25;;
41943;SDS011;27636;52.610;13.244;2023-04-24T16:57:13;2.75;;;1.10;;
41943;SDS011;27636;52.610;13.244;2023-04-24T17:02:18;5.78;;;1.20;;
41943;SDS011;27636;52.610;13.244;2023-04-24T17:07:23;3.17;;;1.30;;
41943;SDS011;27636;52.610;13.244;2023-04-24T17:12:26;1.92;;;1.15;;
41943;SDS011;27636;52.610;13.244;2023-04-24T17:17:29;2.15;;;0.95;;
41943;SDS011;27636;52.610;13.244;2023-04-24T17:22:34;3.83;;;1.33;;
41943;SDS011;27636;52.610;13.244;2023-04-24T17:27:37;1.45;;;0.80;;
41943;SDS011;27636;52.610;13.244;2023-04-24T17:32:41;3.10;;;1.17;;
41943;SDS011;27636;52.610;13.244;2023-04-24T17:37:46;2.03;;;0.90;;
41943;SDS011;27636;52.610;13.244;2023-04-24T17:42:50;1.77;;;0.85;;
41943;SDS011;27636;52.610;13.244;2023-04-24T17:47:53;3.97;;;1.35;;
41943;SDS011;27636;52.610;13.244;2023-04-24T17:52:59;2.75;;;1.13;;
41943;SDS011;27636;52.610;13.244;2023-04-24T17:58:03;3.30;;;1.33;;
41943;SDS011;27636;52.610;13.244;2023-04-24T18:03:07;2.30;;;1.00;;
41943;SDS011;27636;52.610;13.244;2023-04-24T18:13:17;1.17;;;0.77;;
41943;SDS011;27636;52.610;13.244;2023-04-24T18:18:20;0.57;;;0.40;;
41943;SDS011;27636;52.610;13.244;2023-04-24T18:23:25;0.40;;;0.30;;
41943;SDS011;27636;52.610;13.244;2023-04-24T18:28:29;2.17;;;0.60;;
41943;SDS011;27636;52.610;13.244;2023-04-24T18:33:33;0.43;;;0.43;;
41943;SDS011;27636;52.610;13.244;2023-04-24T18:38:38;1.40;;;0.60;;
41943;SDS011;27636;52.610;13.244;2023-04-24T18:43:41;1.60;;;0.60;;
41943;SDS011;27636;52.610;13.244;2023-04-24T18:48:45;0.75;;;0.60;;
41943;SDS011;27636;52.610;13.244;2023-04-24T18:53:50;0.60;;;0.60;;
41943;SDS011;27636;52.610;13.244;2023-04-24T18:58:54;1.52;;;0.80;;
41943;SDS011;27636;52.610;13.244;2023-04-24T19:03:57;2.22;;;0.60;;
41943;SDS011;27636;52.610;13.244;2023-04-24T19:09:02;0.85;;;0.65;;
41943;SDS011;27636;52.610;13.244;2023-04-24T19:14:06;1.50;;;0.80;;
41943;SDS011;27636;52.610;13.244;2023-04-24T19:19:10;0.70;;;0.60;;
41943;SDS011;27636;52.610;13.244;2023-04-24T19:24:15;1.67;;;0.88;;
41943;SDS011;27636;52.610;13.244;2023-04-24T19:29:20;2.13;;;0.70;;
41943;SDS011;27636;52.610;13.244;2023-04-24T19:34:24;4.05;;;1.10;;
41943;SDS011;27636;52.610;13.244;2023-04-24T19:39:29;3.25;;;0.93;;
41943;SDS011;27636;52.610;13.244;2023-04-24T19:44:34;2.38;;;0.90;;
41943;SDS011;27636;52.610;13.244;2023-04-24T19:49:37;2.22;;;1.10;;
41943;SDS011;27636;52.610;13.244;2023-04-24T19:54:43;1.95;;;0.90;;
41943;SDS011;27636;52.610;13.244;2023-04-24T19:59:47;1.75;;;1.00;;
41943;SDS011;27636;52.610;13.244;2023-04-24T20:04:51;1.60;;;0.93;;
41943;SDS011;27636;52.610;13.244;2023-04-24T20:09:56;3.47;;;1.13;;
41943;SDS011;27636;52.610;13.244;2023-04-24T20:14:59;2.28;;;1.10;;
41943;SDS011;27636;52.610;13.244;2023-04-24T20:20:05;2.70;;;1.10;;
41943;SDS011;27636;52.610;13.244;2023-04-24T20:30:18;3.97;;;1.70;;
41943;SDS011;27636;52.610;13.244;2023-04-24T20:35:21;7.72;;;1.40;;
41943;SDS011;27636;52.610;13.244;2023-04-24T20:40:26;3.28;;;1.23;;
41943;SDS011;27636;52.610;13.244;2023-04-24T20:45:33;2.22;;;1.05;;
41943;SDS011;27636;52.610;13.244;2023-04-24T20:50:36;6.55;;;1.50;;
41943;SDS011;27636;52.610;13.244;2023-04-24T20:55:45;3.42;;;1.40;;
41943;SDS011;27636;52.610;13.244;2023-04-24T21:00:48;6.15;;;2.03;;
41943;SDS011;27636;52.610;13.244;2023-04-24T21:05:52;5.55;;;1.98;;
41943;SDS011;27636;52.610;13.244;2023-04-24T21:10:57;7.18;;;1.83;;
41943;SDS011;27636;52.610;13.244;2023-04-24T21:16:01;4.43;;;1.88;;
41943;SDS011;27636;52.610;13.244;2023-04-24T21:21:05;4.07;;;1.70;;
41943;SDS011;27636;52.610;13.244;2023-04-24T21:26:11;5.03;;;2.40;;
41943;SDS011;27636;52.610;13.244;2023-04-24T21:31:14;4.18;;;1.92;;
41943;SDS011;27636;52.610;13.244;2023-04-24T21:36:18;4.32;;;2.13;;
41943;SDS011;27636;52.610;13.244;2023-04-24T21:41:23;4.63;;;2.30;;
41943;SDS011;27636;52.610;13.244;2023-04-24T21:46:27;6.25;;;2.67;;
41943;SDS011;27636;52.610;13.244;2023-04-24T21:51:30;6.90;;;2.97;;
41943;SDS011;27636;52.610;13.244;2023-04-24T21:56:35;8.10;;;2.72;;
41943;SDS011;27636;52.610;13.244;2023-04-24T22:01:38;8.40;;;2.70;;
41943;SDS011;27636;52.610;13.244;2023-04-24T22:06:42;6.60;;;2.75;;
41943;SDS011;27636;52.610;13.244;2023-04-24T22:11:46;7.55;;;2.97;;
41943;SDS011;27636;52.610;13.244;2023-04-24T22:16:50;6.88;;;3.15;;
41943;SDS011;27636;52.610;13.244;2023-04-24T22:21:54;6.43;;;2.65;;
41943;SDS011;27636;52.610;13.244;2023-04-24T22:26:59;7.97;;;2.60;;
41943;SDS011;27636;52.610;13.244;2023-04-24T22:37:06;5.38;;;2.85;;
41943;SDS011;27636;52.610;13.244;2023-04-24T22:42:11;8.30;;;3.25;;
41943;SDS011;27636;52.610;13.244;2023-04-24T22:47:14;6.72;;;2.60;;
41943;SDS011;27636;52.610;13.244;2023-04-24T22:52:19;5.93;;;2.87;;
41943;SDS011;27636;52.610;13.244;2023-04-24T22:57:24;6.60;;;2.30;;
41943;SDS011;27636;52.610;13.244;2023-04-24T23:02:28;6.00;;;2.28;;
41943;SDS011;27636;52.610;13.244;2023-04-24T23:07:31;4.90;;;2.10;;
41943;SDS011;27636;52.610;13.244;2023-04-24T23:12:37;10.77;;;3.30;;
41943;SDS011;27636;52.610;13.244;2023-04-24T23:17:40;6.72;;;3.08;;
41943;SDS011;27636;52.610;13.244;2023-04-24T23:22:44;8.43;;;2.83;;
41943;SDS011;27636;52.610;13.244;2023-04-24T23:27:49;6.50;;;2.67;;
41943;SDS011;27636;52.610;13.244;2023-04-24T23:37:57;5.43;;;2.38;;
41943;SDS011;27636;52.610;13.244;2023-04-24T23:43:02;4.97;;;2.15;;
41943;SDS011;27636;52.610;13.244;2023-04-24T23:48:10;5.70;;;2.22;;
41943;SDS011;27636;52.610;13.244;2023-04-24T23:53:14;8.70;;;2.28;;
41943;SDS011;27636;52.610;13.244;2023-04-24T23:58:18;6.72;;;2.03;;
